MRIT2: Lake Meredith

                                SHEF ID:       MRIT2     Lake Meredith
STATION TYPE: RESERVOIR
Flood Pool: Bottom = 2941.30, Top = 2965.00

PRECIP ELEVATION STORAGE INFLOW RELEASE WIND-DIRWIND-SPEED
in ft ac-ft cfs cfs deg mph
Ccp-Rev Ccp-Rev Ccp-Rev Rev-Regi Rev-Regi Ccp-Rev Ccp-Rev
(America/Chicago)
08/10 00:00 ---- 2889.15 243378 0 0 ---- ----
08/10 01:00 ---- 2889.12 243157 497 0 ---- ----
08/10 02:00 ---- 2889.14 243304 497 0 ---- ----
08/10 03:00 ---- 2889.20 243747 607 0 ---- ----
08/10 04:00 ---- 2889.18 243600 717 0 ---- ----
08/10 05:00 ---- 2889.19 243674 818 0 ---- ----
08/10 06:00 ---- 2889.20 243747 321 0 ---- ----
08/10 07:00 ---- 2889.21 243821 1459 0 ---- ----
08/10 08:00 ---- 2889.17 243526 1775 0 ---- ----
08/10 09:00 ---- 2889.28 244340 1665 0 ---- ----
08/10 10:00 ---- 2889.32 244635 1672 0 ---- ----
08/10 11:00 ---- 2889.32 244635 1672 0 ---- ----
08/10 12:00 ---- 2889.33 244709 534 0 ---- ----
08/10 13:00 ---- 2889.34 244783 109 0 ---- ----
08/10 14:00 ---- 2889.33 244709 109 0 ---- ----
08/10 15:00 ---- 2889.32 244635 0 0 ---- ----
08/10 16:00 ---- 2889.26 244192 0 0 ---- ----
08/10 17:00 ---- 2889.30 244488 0 0 ---- ----
08/10 18:00 ---- 2889.31 244561 0 0 ---- ----
08/10 19:00 ---- 2889.32 244635 0 0 ---- ----
08/10 20:00 ---- 2889.31 244561 150 0 ---- ----
08/10 21:00 ---- 2889.31 244561 150 0 ---- ----
08/10 22:00 ---- 2889.32 244635 450 0 ---- ----
08/10 23:00 ---- ---- ---- ---- ---- ---- ----
Data processed at Sun 11Aug2024 04:43 GMT

Parsing this webpage?

Checkout our new Data API! CWMSDataAPI (CDA)

Timeseries IDs (TSIDs)

TSIDs used from left to right in the data table
MERE.Precip-Inc.Total.1Hour.1Hour.Ccp-Rev
MERE.Elev.Inst.1Hour.0.Ccp-Rev
MERE.Stor.Inst.1Hour.0.Ccp-Rev
MERE.Flow-Res In.Ave.1Hour.1Hour.Rev-Regi-Computed
MERE.Flow-Res Out.Ave.1Hour.1Hour.Rev-Regi-Flowgroup
MERE.Dir-Wind.Inst.1Hour.0.Ccp-Rev
MERE.Speed-Wind.Inst.1Hour.0.Ccp-Rev

                            

All information presented herein is the property of the government of the United States of America and may be revised or deleted at any time without prior notice. Dissemination of this information without the expressed written consent of the Public Affairs Office, Tulsa District U.S. Army Corps of Engineers is strictly prohibited. These data are gathered electronically and, as presented, have NOT undergone any form of quality control. These data are NOT guaranteed to be valid or correct.